createdAt,value
2023-01-10T00:02:56.012Z,1.30
2023-01-10T00:07:55.933Z,1.20
2023-01-10T00:12:55.836Z,1.30
2023-01-10T00:17:55.800Z,1.40
2023-01-10T00:22:55.750Z,1.30
2023-01-10T00:27:55.642Z,1.50
2023-01-10T00:32:55.596Z,1.50
2023-01-10T00:37:55.540Z,1.40
2023-01-10T00:42:55.444Z,1.50
2023-01-10T00:47:55.408Z,1.50
2023-01-10T00:52:55.333Z,1.60
2023-01-10T00:57:55.302Z,1.50
2023-01-10T01:02:55.205Z,1.50
2023-01-10T01:07:55.136Z,1.70
2023-01-10T01:12:55.059Z,1.60
2023-01-10T01:17:55.041Z,1.50
2023-01-10T01:22:54.923Z,1.60
2023-01-10T01:27:54.858Z,1.80
2023-01-10T01:32:54.811Z,1.70
2023-01-10T01:37:54.736Z,1.80
2023-01-10T01:42:54.659Z,2.00
2023-01-10T01:47:54.627Z,1.90
2023-01-10T01:52:54.532Z,2.00
2023-01-10T01:57:54.539Z,2.10
2023-01-10T02:03:02.561Z,2.00
2023-01-10T02:07:55.353Z,2.30
2023-01-10T02:12:54.328Z,2.20
2023-01-10T02:17:54.527Z,2.30
2023-01-10T02:22:54.151Z,2.30
2023-01-10T02:27:54.082Z,2.30
2023-01-10T02:33:04.523Z,2.70
2023-01-10T02:37:54.946Z,2.50
2023-01-10T02:42:53.890Z,2.50
2023-01-10T02:47:53.803Z,2.60
2023-01-10T02:52:53.758Z,2.70
2023-01-10T02:57:53.672Z,2.70
2023-01-10T03:02:53.666Z,2.70
2023-01-10T03:07:53.553Z,2.90
2023-01-10T03:12:53.488Z,2.60
2023-01-10T03:17:53.443Z,3.00
2023-01-10T03:22:53.345Z,2.90
2023-01-10T03:27:53.317Z,3.20
2023-01-10T03:32:53.215Z,3.10
2023-01-10T03:37:53.183Z,3.20
2023-01-10T03:42:53.115Z,3.10
2023-01-10T03:47:53.025Z,3.70
2023-01-10T03:52:52.972Z,3.10
2023-01-10T03:57:52.985Z,3.20
2023-01-10T04:02:52.882Z,3.50
2023-01-10T04:07:52.782Z,3.50
2023-01-10T04:12:52.715Z,3.30
2023-01-10T04:17:52.685Z,3.50
2023-01-10T04:22:52.609Z,3.10
2023-01-10T04:27:52.530Z,3.20
2023-01-10T04:32:52.493Z,3.60
2023-01-10T04:37:52.447Z,3.30
2023-01-10T04:42:52.315Z,3.70
2023-01-10T04:47:52.249Z,3.50
2023-01-10T04:52:52.233Z,3.40
2023-01-10T04:57:52.126Z,3.60
2023-01-10T05:02:52.171Z,4.10
2023-01-10T05:07:52.016Z,3.80
2023-01-10T05:12:51.938Z,3.80
2023-01-10T05:17:51.863Z,4.00
2023-01-10T05:22:51.801Z,4.10
2023-01-10T05:27:51.765Z,4.10
2023-01-10T05:32:51.668Z,4.40
2023-01-10T05:37:51.607Z,4.20
2023-01-10T05:42:51.601Z,4.80
2023-01-10T05:47:51.473Z,4.30
2023-01-10T05:52:58.598Z,4.50
2023-01-10T05:57:59.419Z,4.20
2023-01-10T06:02:51.364Z,4.60
2023-01-10T06:07:51.199Z,4.90
2023-01-10T06:12:51.150Z,4.60
2023-01-10T06:17:51.087Z,4.50
2023-01-10T06:22:51.043Z,4.70
2023-01-10T06:27:50.958Z,4.70
2023-01-10T06:32:50.951Z,4.60
2023-01-10T06:37:50.832Z,4.70
2023-01-10T06:42:50.780Z,4.60
2023-01-10T06:47:50.689Z,4.90
2023-01-10T06:52:50.632Z,5.20
2023-01-10T06:57:50.870Z,5.20
2023-01-10T07:02:50.525Z,5.60
2023-01-10T07:07:50.459Z,5.00
2023-01-10T07:12:50.392Z,5.10
2023-01-10T07:17:50.305Z,4.60
2023-01-10T07:22:50.302Z,4.50
2023-01-10T07:27:50.198Z,4.70
2023-01-10T07:32:50.150Z,4.70
2023-01-10T07:37:54.273Z,5.00
2023-01-10T07:42:50.048Z,5.00
2023-01-10T07:47:50.011Z,4.50
2023-01-10T07:52:49.845Z,4.50
2023-01-10T07:57:49.853Z,4.60
2023-01-10T08:02:49.785Z,5.50
2023-01-10T08:07:49.683Z,5.40
2023-01-10T08:12:49.578Z,5.00
2023-01-10T08:17:49.536Z,4.80
2023-01-10T08:22:49.497Z,4.50
2023-01-10T08:27:49.408Z,5.00
2023-01-10T08:32:49.363Z,4.90
2023-01-10T08:37:49.522Z,4.80
2023-01-10T08:42:49.213Z,4.90
2023-01-10T08:47:49.123Z,4.00
2023-01-10T08:52:49.101Z,4.80
2023-01-10T08:57:49.034Z,4.50
2023-01-10T09:02:48.961Z,4.30
2023-01-10T09:07:48.915Z,4.20
2023-01-10T09:12:49.133Z,4.10
2023-01-10T09:17:48.793Z,3.40
2023-01-10T09:22:48.695Z,2.90
2023-01-10T09:27:55.598Z,2.20
2023-01-10T09:32:48.519Z,2.10
2023-01-10T09:37:48.473Z,1.60
2023-01-10T09:42:48.387Z,1.60
2023-01-10T09:47:48.366Z,1.80
2023-01-10T09:52:48.304Z,1.80
2023-01-10T09:57:48.229Z,2.00
2023-01-10T10:02:48.198Z,2.20
2023-01-10T10:07:48.128Z,2.70
2023-01-10T10:12:48.021Z,2.90
2023-01-10T10:17:47.984Z,3.10
2023-01-10T10:22:47.911Z,3.40
2023-01-10T10:27:47.869Z,3.10
2023-01-10T10:32:47.771Z,3.30
2023-01-10T10:37:47.723Z,2.90
2023-01-10T10:42:47.610Z,2.80
2023-01-10T10:47:47.604Z,2.30
2023-01-10T10:52:47.520Z,2.40
2023-01-10T10:57:59.459Z,1.40
2023-01-10T11:02:48.736Z,1.70
2023-01-10T11:07:47.405Z,1.60
2023-01-10T11:12:47.233Z,1.80
2023-01-10T11:17:47.167Z,1.70
2023-01-10T11:22:47.084Z,1.70
2023-01-10T11:27:47.044Z,1.80
2023-01-10T11:32:46.957Z,2.30
2023-01-10T11:37:46.933Z,2.10
2023-01-10T11:42:46.811Z,2.20
2023-01-10T11:47:46.822Z,2.50
2023-01-10T11:52:46.741Z,2.70
2023-01-10T11:57:46.651Z,2.50
2023-01-10T12:02:46.588Z,2.80
2023-01-10T12:07:46.535Z,2.50
2023-01-10T12:12:46.436Z,2.30
2023-01-10T12:17:47.125Z,2.50
2023-01-10T12:22:46.303Z,2.10
2023-01-10T12:27:46.264Z,2.40
2023-01-10T12:32:46.141Z,2.00
2023-01-10T12:37:46.178Z,2.20
2023-01-10T12:42:46.127Z,1.90
2023-01-10T12:47:46.067Z,2.20
2023-01-10T12:52:45.928Z,2.10
2023-01-10T12:57:46.544Z,2.00
2023-01-10T13:02:52.876Z,2.10
2023-01-10T13:07:52.734Z,2.10
2023-01-10T13:12:45.620Z,2.40
2023-01-10T13:17:45.571Z,2.20
2023-01-10T13:22:45.513Z,2.20
2023-01-10T13:27:45.508Z,1.90
2023-01-10T13:32:45.365Z,2.10
2023-01-10T13:37:45.306Z,2.50
2023-01-10T13:42:45.235Z,1.80
2023-01-10T13:47:45.187Z,1.70
2023-01-10T13:52:45.115Z,1.60
2023-01-10T13:57:45.317Z,2.10
2023-01-10T14:02:44.939Z,2.00
2023-01-10T14:07:44.918Z,1.50
2023-01-10T14:12:44.821Z,1.80
2023-01-10T14:17:44.796Z,1.60
2023-01-10T14:22:44.736Z,1.80
2023-01-10T14:27:44.683Z,1.80
2023-01-10T14:32:44.614Z,1.70
2023-01-10T14:37:44.606Z,1.50
2023-01-10T14:42:44.572Z,1.70
2023-01-10T14:47:44.416Z,1.50
2023-01-10T14:52:44.343Z,1.70
2023-01-10T14:57:44.247Z,1.90
2023-01-10T15:02:44.185Z,1.50
2023-01-10T15:07:44.118Z,1.80
2023-01-10T15:12:44.062Z,1.70
2023-01-10T15:17:44.018Z,2.80
2023-01-10T15:22:44.062Z,1.80
2023-01-10T15:27:43.918Z,1.90
2023-01-10T15:32:43.819Z,2.10
2023-01-10T15:37:43.721Z,1.70
2023-01-10T15:42:43.751Z,1.70
2023-01-10T15:47:43.615Z,1.60
2023-01-10T15:52:43.521Z,2.00
2023-01-10T15:57:43.485Z,2.20
2023-01-10T16:02:43.702Z,1.70
2023-01-10T16:07:43.359Z,1.80
2023-01-10T16:12:43.427Z,1.80
2023-01-10T16:17:43.233Z,1.70
2023-01-10T16:22:43.237Z,1.80
2023-01-10T16:27:43.104Z,2.10
2023-01-10T16:32:43.056Z,1.70
2023-01-10T16:37:42.935Z,2.10
2023-01-10T16:42:42.921Z,1.90
2023-01-10T16:47:49.800Z,2.00
2023-01-10T16:52:42.714Z,2.30
2023-01-10T16:57:42.665Z,2.00
2023-01-10T17:02:42.595Z,2.10
2023-01-10T17:07:42.554Z,2.10
2023-01-10T17:12:42.735Z,2.20
2023-01-10T17:17:42.406Z,2.00
2023-01-10T17:22:42.325Z,2.00
2023-01-10T17:27:42.305Z,2.20
2023-01-10T17:32:43.117Z,2.20
2023-01-10T17:37:42.141Z,2.30
2023-01-10T17:42:42.111Z,2.50
2023-01-10T17:47:42.086Z,2.30
2023-01-10T17:52:41.932Z,2.50
2023-01-10T17:57:41.980Z,2.80
2023-01-10T18:02:42.999Z,2.80
2023-01-10T18:07:41.741Z,2.60
2023-01-10T18:12:41.671Z,2.50
2023-01-10T18:17:41.881Z,2.70
2023-01-10T18:22:41.713Z,2.50
2023-01-10T18:27:41.845Z,2.30
2023-01-10T18:32:41.469Z,2.30
2023-01-10T18:37:41.469Z,2.60
2023-01-10T18:42:41.616Z,2.70
2023-01-10T18:47:41.389Z,2.30
2023-01-10T18:52:41.346Z,2.50
2023-01-10T18:57:41.549Z,2.10
2023-01-10T19:02:41.050Z,2.30
2023-01-10T19:07:41.463Z,2.20
2023-01-10T19:12:40.965Z,2.00
2023-01-10T19:17:40.896Z,2.50
2023-01-10T19:22:40.903Z,2.20
2023-01-10T19:27:40.752Z,2.20
2023-01-10T19:32:40.715Z,2.00
2023-01-10T19:37:40.632Z,2.30
2023-01-10T19:42:40.571Z,2.00
2023-01-10T19:47:40.529Z,2.00
2023-01-10T19:52:40.479Z,1.70
2023-01-10T19:57:40.354Z,1.80
2023-01-10T20:02:40.378Z,1.70
2023-01-10T20:07:40.306Z,2.20
2023-01-10T20:12:40.142Z,2.30
2023-01-10T20:17:40.404Z,2.10
2023-01-10T20:22:40.046Z,2.20
2023-01-10T20:27:40.237Z,2.30
2023-01-10T20:32:39.878Z,2.30
2023-01-10T20:37:40.109Z,2.40
2023-01-10T20:42:40.886Z,2.30
2023-01-10T20:47:39.957Z,2.20
2023-01-10T20:52:39.632Z,2.20
2023-01-10T20:57:39.527Z,1.90
2023-01-10T21:02:39.707Z,2.00
2023-01-10T21:07:39.836Z,1.80
2023-01-10T21:12:39.416Z,1.60
2023-01-10T21:17:39.524Z,2.40
2023-01-10T21:22:39.208Z,2.60
2023-01-10T21:27:39.232Z,2.40
2023-01-10T21:32:39.088Z,3.30
2023-01-10T21:37:40.641Z,3.10
2023-01-10T21:42:39.000Z,2.70
2023-01-10T21:47:38.955Z,3.50
2023-01-10T21:52:38.844Z,3.30
2023-01-10T21:57:39.638Z,2.50
2023-01-10T22:02:38.724Z,2.70
2023-01-10T22:07:38.698Z,2.20
2023-01-10T22:12:38.577Z,2.70
2023-01-10T22:17:38.585Z,2.90
2023-01-10T22:22:38.510Z,2.60
2023-01-10T22:27:38.413Z,3.40
2023-01-10T22:32:38.301Z,3.40
2023-01-10T22:37:38.363Z,3.30
2023-01-10T22:42:38.279Z,4.70
2023-01-10T22:47:38.157Z,5.00
2023-01-10T22:52:38.088Z,6.50
2023-01-10T22:57:46.663Z,6.30
2023-01-10T23:02:39.008Z,6.60
2023-01-10T23:07:37.920Z,6.60
2023-01-10T23:12:37.803Z,6.60
2023-01-10T23:17:37.879Z,7.20
2023-01-10T23:22:37.700Z,7.00
2023-01-10T23:27:37.669Z,6.70
2023-01-10T23:32:37.628Z,6.50
2023-01-10T23:37:38.272Z,6.30
2023-01-10T23:42:37.426Z,6.50
2023-01-10T23:47:37.353Z,7.10
2023-01-10T23:52:37.344Z,6.70
2023-01-10T23:57:37.201Z,6.90
